sensor_id;sensor_type;location;lat;lon;timestamp;P1;durP1;ratioP1;P2;durP2;ratioP2
74957;SDS011;63741;42.624;26.276;2023-12-29T00:01:49;14.55;;;9.23;;
74957;SDS011;63741;42.624;26.276;2023-12-29T00:04:16;16.70;;;9.75;;
74957;SDS011;63741;42.624;26.276;2023-12-29T00:06:43;18.70;;;9.50;;
74957;SDS011;63741;42.624;26.276;2023-12-29T00:09:23;13.63;;;8.55;;
74957;SDS011;63741;42.624;26.276;2023-12-29T00:11:50;17.52;;;9.13;;
74957;SDS011;63741;42.624;26.276;2023-12-29T00:14:18;15.05;;;8.80;;
74957;SDS011;63741;42.624;26.276;2023-12-29T00:16:45;16.10;;;8.13;;
74957;SDS011;63741;42.624;26.276;2023-12-29T00:19:12;13.55;;;8.13;;
74957;SDS011;63741;42.624;26.276;2023-12-29T00:21:39;14.38;;;9.40;;
74957;SDS011;63741;42.624;26.276;2023-12-29T00:24:06;13.80;;;8.18;;
74957;SDS011;63741;42.624;26.276;2023-12-29T00:26:34;12.95;;;7.30;;
74957;SDS011;63741;42.624;26.276;2023-12-29T00:29:01;16.20;;;9.73;;
74957;SDS011;63741;42.624;26.276;2023-12-29T00:31:28;14.93;;;8.85;;
74957;SDS011;63741;42.624;26.276;2023-12-29T00:33:56;13.48;;;7.80;;
74957;SDS011;63741;42.624;26.276;2023-12-29T00:36:23;14.20;;;8.13;;
74957;SDS011;63741;42.624;26.276;2023-12-29T00:38:51;13.68;;;7.82;;
74957;SDS011;63741;42.624;26.276;2023-12-29T00:41:18;13.75;;;8.60;;
74957;SDS011;63741;42.624;26.276;2023-12-29T00:43:45;13.48;;;8.25;;
74957;SDS011;63741;42.624;26.276;2023-12-29T00:46:13;15.25;;;8.40;;
74957;SDS011;63741;42.624;26.276;2023-12-29T00:48:42;15.98;;;8.27;;
74957;SDS011;63741;42.624;26.276;2023-12-29T00:51:10;15.52;;;8.45;;
74957;SDS011;63741;42.624;26.276;2023-12-29T00:53:37;17.40;;;9.40;;
74957;SDS011;63741;42.624;26.276;2023-12-29T00:56:13;17.15;;;8.45;;
74957;SDS011;63741;42.624;26.276;2023-12-29T00:58:40;15.02;;;7.15;;
74957;SDS011;63741;42.624;26.276;2023-12-29T01:01:08;10.50;;;6.82;;
74957;SDS011;63741;42.624;26.276;2023-12-29T01:03:38;14.07;;;7.47;;
74957;SDS011;63741;42.624;26.276;2023-12-29T01:06:05;11.45;;;6.95;;
74957;SDS011;63741;42.624;26.276;2023-12-29T01:08:32;13.13;;;8.07;;
74957;SDS011;63741;42.624;26.276;2023-12-29T01:11:00;13.32;;;7.65;;
74957;SDS011;63741;42.624;26.276;2023-12-29T01:13:27;12.07;;;7.57;;
74957;SDS011;63741;42.624;26.276;2023-12-29T01:15:54;15.57;;;7.80;;
74957;SDS011;63741;42.624;26.276;2023-12-29T01:18:21;13.30;;;7.57;;
74957;SDS011;63741;42.624;26.276;2023-12-29T01:20:48;10.70;;;7.38;;
74957;SDS011;63741;42.624;26.276;2023-12-29T01:23:15;15.93;;;8.07;;
74957;SDS011;63741;42.624;26.276;2023-12-29T01:25:43;17.45;;;8.48;;
74957;SDS011;63741;42.624;26.276;2023-12-29T01:28:11;13.02;;;7.45;;
74957;SDS011;63741;42.624;26.276;2023-12-29T01:30:38;12.85;;;8.38;;
74957;SDS011;63741;42.624;26.276;2023-12-29T01:33:05;13.60;;;7.63;;
74957;SDS011;63741;42.624;26.276;2023-12-29T01:35:32;14.00;;;8.18;;
74957;SDS011;63741;42.624;26.276;2023-12-29T01:37:59;17.23;;;9.38;;
74957;SDS011;63741;42.624;26.276;2023-12-29T01:40:28;22.83;;;11.35;;
74957;SDS011;63741;42.624;26.276;2023-12-29T01:42:55;13.82;;;8.68;;
74957;SDS011;63741;42.624;26.276;2023-12-29T01:45:23;16.75;;;8.95;;
74957;SDS011;63741;42.624;26.276;2023-12-29T01:47:52;14.15;;;8.75;;
74957;SDS011;63741;42.624;26.276;2023-12-29T01:50:21;15.65;;;8.88;;
74957;SDS011;63741;42.624;26.276;2023-12-29T01:52:49;12.35;;;7.40;;
74957;SDS011;63741;42.624;26.276;2023-12-29T01:55:19;13.80;;;8.02;;
74957;SDS011;63741;42.624;26.276;2023-12-29T01:57:48;13.18;;;8.48;;
74957;SDS011;63741;42.624;26.276;2023-12-29T02:00:17;13.90;;;7.55;;
74957;SDS011;63741;42.624;26.276;2023-12-29T02:02:47;13.48;;;7.85;;
74957;SDS011;63741;42.624;26.276;2023-12-29T02:05:16;13.77;;;7.80;;
74957;SDS011;63741;42.624;26.276;2023-12-29T02:07:47;14.57;;;8.23;;
74957;SDS011;63741;42.624;26.276;2023-12-29T02:10:17;12.38;;;8.07;;
74957;SDS011;63741;42.624;26.276;2023-12-29T02:12:45;13.55;;;7.90;;
74957;SDS011;63741;42.624;26.276;2023-12-29T02:15:14;15.40;;;7.95;;
74957;SDS011;63741;42.624;26.276;2023-12-29T02:17:45;14.45;;;7.78;;
74957;SDS011;63741;42.624;26.276;2023-12-29T02:20:17;14.00;;;7.50;;
74957;SDS011;63741;42.624;26.276;2023-12-29T02:22:45;13.38;;;7.80;;
74957;SDS011;63741;42.624;26.276;2023-12-29T02:25:12;14.95;;;8.48;;
74957;SDS011;63741;42.624;26.276;2023-12-29T02:30:41;14.95;;;8.15;;
74957;SDS011;63741;42.624;26.276;2023-12-29T02:33:17;15.43;;;8.15;;
74957;SDS011;63741;42.624;26.276;2023-12-29T02:35:46;15.45;;;8.70;;
74957;SDS011;63741;42.624;26.276;2023-12-29T02:38:18;15.27;;;8.50;;
74957;SDS011;63741;42.624;26.276;2023-12-29T02:40:45;12.90;;;7.85;;
74957;SDS011;63741;42.624;26.276;2023-12-29T02:43:14;14.60;;;8.50;;
74957;SDS011;63741;42.624;26.276;2023-12-29T02:45:41;12.32;;;7.93;;
74957;SDS011;63741;42.624;26.276;2023-12-29T02:48:09;14.50;;;8.13;;
74957;SDS011;63741;42.624;26.276;2023-12-29T02:50:36;12.45;;;8.05;;
74957;SDS011;63741;42.624;26.276;2023-12-29T02:53:03;12.45;;;8.10;;
74957;SDS011;63741;42.624;26.276;2023-12-29T02:55:33;15.25;;;8.43;;
74957;SDS011;63741;42.624;26.276;2023-12-29T02:58:00;13.20;;;8.02;;
74957;SDS011;63741;42.624;26.276;2023-12-29T03:00:28;16.75;;;8.55;;
74957;SDS011;63741;42.624;26.276;2023-12-29T03:02:55;16.10;;;8.55;;
74957;SDS011;63741;42.624;26.276;2023-12-29T03:05:22;16.33;;;8.93;;
74957;SDS011;63741;42.624;26.276;2023-12-29T03:07:49;16.02;;;8.48;;
74957;SDS011;63741;42.624;26.276;2023-12-29T03:10:17;16.67;;;8.95;;
74957;SDS011;63741;42.624;26.276;2023-12-29T03:12:44;16.65;;;9.15;;
74957;SDS011;63741;42.624;26.276;2023-12-29T03:15:11;14.77;;;8.73;;
74957;SDS011;63741;42.624;26.276;2023-12-29T03:17:37;20.05;;;8.85;;
74957;SDS011;63741;42.624;26.276;2023-12-29T03:20:05;14.48;;;8.45;;
74957;SDS011;63741;42.624;26.276;2023-12-29T03:22:33;15.45;;;8.63;;
74957;SDS011;63741;42.624;26.276;2023-12-29T03:25:00;14.82;;;8.40;;
74957;SDS011;63741;42.624;26.276;2023-12-29T03:27:27;12.45;;;7.75;;
74957;SDS011;63741;42.624;26.276;2023-12-29T03:29:54;11.90;;;7.43;;
74957;SDS011;63741;42.624;26.276;2023-12-29T03:32:21;13.80;;;7.82;;
74957;SDS011;63741;42.624;26.276;2023-12-29T03:34:48;14.23;;;7.93;;
74957;SDS011;63741;42.624;26.276;2023-12-29T03:37:15;41.40;;;9.10;;
74957;SDS011;63741;42.624;26.276;2023-12-29T03:39:42;13.00;;;8.15;;
74957;SDS011;63741;42.624;26.276;2023-12-29T03:42:10;13.77;;;8.30;;
74957;SDS011;63741;42.624;26.276;2023-12-29T03:44:37;15.38;;;8.98;;
74957;SDS011;63741;42.624;26.276;2023-12-29T03:47:04;23.80;;;9.18;;
74957;SDS011;63741;42.624;26.276;2023-12-29T03:49:32;18.55;;;8.52;;
74957;SDS011;63741;42.624;26.276;2023-12-29T03:52:00;14.10;;;7.97;;
74957;SDS011;63741;42.624;26.276;2023-12-29T03:54:27;13.65;;;8.20;;
74957;SDS011;63741;42.624;26.276;2023-12-29T03:56:55;16.60;;;8.40;;
74957;SDS011;63741;42.624;26.276;2023-12-29T03:59:22;14.65;;;8.32;;
74957;SDS011;63741;42.624;26.276;2023-12-29T04:01:48;14.02;;;8.85;;
74957;SDS011;63741;42.624;26.276;2023-12-29T04:04:16;15.25;;;9.07;;
74957;SDS011;63741;42.624;26.276;2023-12-29T04:06:43;14.23;;;8.15;;
74957;SDS011;63741;42.624;26.276;2023-12-29T04:09:10;16.13;;;8.52;;
74957;SDS011;63741;42.624;26.276;2023-12-29T04:11:37;19.00;;;8.57;;
74957;SDS011;63741;42.624;26.276;2023-12-29T04:14:04;14.93;;;8.60;;
74957;SDS011;63741;42.624;26.276;2023-12-29T04:16:31;13.65;;;8.20;;
74957;SDS011;63741;42.624;26.276;2023-12-29T04:18:58;13.43;;;8.40;;
74957;SDS011;63741;42.624;26.276;2023-12-29T04:21:25;12.95;;;7.53;;
74957;SDS011;63741;42.624;26.276;2023-12-29T04:23:52;12.45;;;7.57;;
74957;SDS011;63741;42.624;26.276;2023-12-29T04:26:21;13.55;;;7.65;;
74957;SDS011;63741;42.624;26.276;2023-12-29T04:28:48;12.23;;;6.80;;
74957;SDS011;63741;42.624;26.276;2023-12-29T04:31:15;10.80;;;6.72;;
74957;SDS011;63741;42.624;26.276;2023-12-29T04:33:42;14.35;;;7.30;;
74957;SDS011;63741;42.624;26.276;2023-12-29T04:36:09;12.85;;;7.53;;
74957;SDS011;63741;42.624;26.276;2023-12-29T04:38:36;14.40;;;7.63;;
74957;SDS011;63741;42.624;26.276;2023-12-29T04:41:04;14.30;;;7.70;;
74957;SDS011;63741;42.624;26.276;2023-12-29T04:43:31;22.60;;;8.30;;
74957;SDS011;63741;42.624;26.276;2023-12-29T04:45:58;15.60;;;7.75;;
74957;SDS011;63741;42.624;26.276;2023-12-29T04:48:25;17.30;;;7.90;;
74957;SDS011;63741;42.624;26.276;2023-12-29T04:50:52;15.13;;;7.43;;
74957;SDS011;63741;42.624;26.276;2023-12-29T04:53:19;13.57;;;7.40;;
74957;SDS011;63741;42.624;26.276;2023-12-29T04:55:46;15.52;;;7.47;;
74957;SDS011;63741;42.624;26.276;2023-12-29T04:58:13;14.32;;;7.82;;
74957;SDS011;63741;42.624;26.276;2023-12-29T05:00:41;14.85;;;7.65;;
74957;SDS011;63741;42.624;26.276;2023-12-29T05:03:08;24.23;;;8.95;;
74957;SDS011;63741;42.624;26.276;2023-12-29T05:05:35;42.05;;;9.23;;
74957;SDS011;63741;42.624;26.276;2023-12-29T05:08:02;17.88;;;8.63;;
74957;SDS011;63741;42.624;26.276;2023-12-29T05:10:29;65.28;;;33.92;;
74957;SDS011;63741;42.624;26.276;2023-12-29T05:13:01;49.72;;;26.30;;
74957;SDS011;63741;42.624;26.276;2023-12-29T05:15:28;48.85;;;30.83;;
74957;SDS011;63741;42.624;26.276;2023-12-29T05:17:55;33.53;;;20.25;;
74957;SDS011;63741;42.624;26.276;2023-12-29T05:20:22;28.27;;;16.05;;
74957;SDS011;63741;42.624;26.276;2023-12-29T05:22:49;29.88;;;19.05;;
74957;SDS011;63741;42.624;26.276;2023-12-29T05:25:16;25.48;;;16.38;;
74957;SDS011;63741;42.624;26.276;2023-12-29T05:27:43;39.33;;;25.98;;
74957;SDS011;63741;42.624;26.276;2023-12-29T05:30:10;25.60;;;14.05;;
74957;SDS011;63741;42.624;26.276;2023-12-29T05:32:38;39.30;;;16.95;;
74957;SDS011;63741;42.624;26.276;2023-12-29T05:35:05;24.55;;;14.57;;
74957;SDS011;63741;42.624;26.276;2023-12-29T05:37:32;28.52;;;9.98;;
74957;SDS011;63741;42.624;26.276;2023-12-29T05:39:59;15.15;;;8.70;;
74957;SDS011;63741;42.624;26.276;2023-12-29T05:42:26;26.65;;;9.18;;
74957;SDS011;63741;42.624;26.276;2023-12-29T05:44:53;15.55;;;8.65;;
74957;SDS011;63741;42.624;26.276;2023-12-29T05:47:20;23.17;;;9.55;;
74957;SDS011;63741;42.624;26.276;2023-12-29T05:49:47;23.75;;;10.30;;
74957;SDS011;63741;42.624;26.276;2023-12-29T05:52:14;23.10;;;11.20;;
74957;SDS011;63741;42.624;26.276;2023-12-29T05:54:41;23.73;;;13.13;;
74957;SDS011;63741;42.624;26.276;2023-12-29T05:57:08;22.73;;;11.93;;
74957;SDS011;63741;42.624;26.276;2023-12-29T05:59:35;30.08;;;11.65;;
74957;SDS011;63741;42.624;26.276;2023-12-29T06:02:02;20.30;;;12.93;;
74957;SDS011;63741;42.624;26.276;2023-12-29T06:04:29;16.25;;;8.73;;
74957;SDS011;63741;42.624;26.276;2023-12-29T06:06:56;15.13;;;8.35;;
74957;SDS011;63741;42.624;26.276;2023-12-29T06:09:23;18.55;;;8.35;;
74957;SDS011;63741;42.624;26.276;2023-12-29T06:11:50;14.75;;;8.13;;
74957;SDS011;63741;42.624;26.276;2023-12-29T06:14:17;19.35;;;8.25;;
74957;SDS011;63741;42.624;26.276;2023-12-29T06:16:44;14.73;;;8.15;;
74957;SDS011;63741;42.624;26.276;2023-12-29T06:19:11;16.45;;;8.40;;
74957;SDS011;63741;42.624;26.276;2023-12-29T06:21:41;13.18;;;7.00;;
74957;SDS011;63741;42.624;26.276;2023-12-29T06:24:12;36.72;;;8.48;;
74957;SDS011;63741;42.624;26.276;2023-12-29T06:26:39;13.13;;;7.45;;
74957;SDS011;63741;42.624;26.276;2023-12-29T06:29:10;12.07;;;7.07;;
74957;SDS011;63741;42.624;26.276;2023-12-29T06:31:39;13.85;;;6.82;;
74957;SDS011;63741;42.624;26.276;2023-12-29T06:34:09;10.73;;;6.57;;
74957;SDS011;63741;42.624;26.276;2023-12-29T06:36:36;13.95;;;7.45;;
74957;SDS011;63741;42.624;26.276;2023-12-29T06:39:03;28.40;;;8.23;;
74957;SDS011;63741;42.624;26.276;2023-12-29T06:41:30;20.65;;;7.55;;
74957;SDS011;63741;42.624;26.276;2023-12-29T06:43:57;20.98;;;10.05;;
74957;SDS011;63741;42.624;26.276;2023-12-29T06:46:26;30.85;;;13.18;;
74957;SDS011;63741;42.624;26.276;2023-12-29T06:48:53;67.05;;;12.23;;
74957;SDS011;63741;42.624;26.276;2023-12-29T06:51:20;20.83;;;12.18;;
74957;SDS011;63741;42.624;26.276;2023-12-29T06:53:49;45.42;;;19.85;;
74957;SDS011;63741;42.624;26.276;2023-12-29T06:56:16;44.97;;;21.98;;
74957;SDS011;63741;42.624;26.276;2023-12-29T06:58:44;33.40;;;15.32;;
74957;SDS011;63741;42.624;26.276;2023-12-29T07:01:12;20.48;;;9.77;;
74957;SDS011;63741;42.624;26.276;2023-12-29T07:03:39;18.60;;;10.30;;
74957;SDS011;63741;42.624;26.276;2023-12-29T07:06:06;17.15;;;8.95;;
74957;SDS011;63741;42.624;26.276;2023-12-29T07:08:33;24.58;;;8.68;;
74957;SDS011;63741;42.624;26.276;2023-12-29T07:11:00;12.40;;;8.18;;
74957;SDS011;63741;42.624;26.276;2023-12-29T07:13:27;15.90;;;7.85;;
74957;SDS011;63741;42.624;26.276;2023-12-29T07:15:55;23.13;;;9.68;;
74957;SDS011;63741;42.624;26.276;2023-12-29T07:18:22;18.27;;;8.43;;
74957;SDS011;63741;42.624;26.276;2023-12-29T07:20:49;20.50;;;7.80;;
74957;SDS011;63741;42.624;26.276;2023-12-29T07:23:16;12.63;;;6.70;;
74957;SDS011;63741;42.624;26.276;2023-12-29T07:25:43;14.93;;;8.07;;
74957;SDS011;63741;42.624;26.276;2023-12-29T07:28:09;15.18;;;7.43;;
74957;SDS011;63741;42.624;26.276;2023-12-29T07:30:37;20.52;;;7.35;;
74957;SDS011;63741;42.624;26.276;2023-12-29T07:33:04;11.82;;;6.80;;
74957;SDS011;63741;42.624;26.276;2023-12-29T07:35:31;10.20;;;6.68;;
74957;SDS011;63741;42.624;26.276;2023-12-29T07:37:58;13.35;;;6.93;;
74957;SDS011;63741;42.624;26.276;2023-12-29T07:40:26;13.15;;;7.38;;
74957;SDS011;63741;42.624;26.276;2023-12-29T07:42:53;13.52;;;6.72;;
74957;SDS011;63741;42.624;26.276;2023-12-29T07:45:21;16.38;;;6.78;;
74957;SDS011;63741;42.624;26.276;2023-12-29T07:47:48;12.52;;;6.70;;
74957;SDS011;63741;42.624;26.276;2023-12-29T07:50:15;9.25;;;6.35;;
74957;SDS011;63741;42.624;26.276;2023-12-29T07:52:43;15.63;;;6.90;;
74957;SDS011;63741;42.624;26.276;2023-12-29T07:55:10;19.27;;;6.70;;
74957;SDS011;63741;42.624;26.276;2023-12-29T07:57:37;22.73;;;6.28;;
74957;SDS011;63741;42.624;26.276;2023-12-29T08:00:04;17.20;;;7.00;;
74957;SDS011;63741;42.624;26.276;2023-12-29T08:02:37;21.45;;;6.55;;
74957;SDS011;63741;42.624;26.276;2023-12-29T08:05:04;17.52;;;7.20;;
74957;SDS011;63741;42.624;26.276;2023-12-29T08:07:31;13.93;;;6.85;;
74957;SDS011;63741;42.624;26.276;2023-12-29T08:09:58;12.02;;;6.18;;
74957;SDS011;63741;42.624;26.276;2023-12-29T08:12:25;12.52;;;6.25;;
74957;SDS011;63741;42.624;26.276;2023-12-29T08:14:54;15.32;;;7.20;;
74957;SDS011;63741;42.624;26.276;2023-12-29T08:17:21;13.18;;;6.60;;
74957;SDS011;63741;42.624;26.276;2023-12-29T08:19:49;37.67;;;8.65;;
74957;SDS011;63741;42.624;26.276;2023-12-29T08:22:16;26.45;;;6.45;;
74957;SDS011;63741;42.624;26.276;2023-12-29T08:24:43;123.40;;;10.73;;
74957;SDS011;63741;42.624;26.276;2023-12-29T08:27:13;30.02;;;7.10;;
74957;SDS011;63741;42.624;26.276;2023-12-29T08:29:41;12.52;;;6.38;;
74957;SDS011;63741;42.624;26.276;2023-12-29T08:32:08;19.00;;;6.78;;
74957;SDS011;63741;42.624;26.276;2023-12-29T08:34:35;16.80;;;9.43;;
74957;SDS011;63741;42.624;26.276;2023-12-29T08:37:04;15.38;;;6.18;;
74957;SDS011;63741;42.624;26.276;2023-12-29T08:39:31;37.88;;;7.25;;
74957;SDS011;63741;42.624;26.276;2023-12-29T08:41:58;11.40;;;6.00;;
74957;SDS011;63741;42.624;26.276;2023-12-29T08:44:25;108.05;;;10.23;;
74957;SDS011;63741;42.624;26.276;2023-12-29T08:46:52;14.68;;;6.03;;
74957;SDS011;63741;42.624;26.276;2023-12-29T08:49:19;13.77;;;6.50;;
74957;SDS011;63741;42.624;26.276;2023-12-29T08:51:46;10.43;;;6.40;;
74957;SDS011;63741;42.624;26.276;2023-12-29T08:54:14;21.08;;;6.93;;
74957;SDS011;63741;42.624;26.276;2023-12-29T08:56:40;16.63;;;6.57;;
74957;SDS011;63741;42.624;26.276;2023-12-29T08:59:07;13.55;;;6.63;;
74957;SDS011;63741;42.624;26.276;2023-12-29T09:01:34;12.20;;;7.32;;
74957;SDS011;63741;42.624;26.276;2023-12-29T09:04:01;12.25;;;6.57;;
74957;SDS011;63741;42.624;26.276;2023-12-29T09:06:29;13.88;;;6.70;;
74957;SDS011;63741;42.624;26.276;2023-12-29T09:08:56;10.15;;;6.70;;
74957;SDS011;63741;42.624;26.276;2023-12-29T09:11:23;13.82;;;7.32;;
74957;SDS011;63741;42.624;26.276;2023-12-29T09:13:50;9.50;;;6.80;;
74957;SDS011;63741;42.624;26.276;2023-12-29T09:16:17;23.80;;;7.82;;
74957;SDS011;63741;42.624;26.276;2023-12-29T09:18:44;45.53;;;9.10;;
74957;SDS011;63741;42.624;26.276;2023-12-29T09:21:11;26.95;;;7.90;;
74957;SDS011;63741;42.624;26.276;2023-12-29T09:23:38;18.42;;;8.25;;
74957;SDS011;63741;42.624;26.276;2023-12-29T09:26:06;15.15;;;7.55;;
74957;SDS011;63741;42.624;26.276;2023-12-29T09:28:33;17.58;;;8.63;;
74957;SDS011;63741;42.624;26.276;2023-12-29T09:31:01;17.80;;;9.32;;
74957;SDS011;63741;42.624;26.276;2023-12-29T09:33:28;30.05;;;9.48;;
74957;SDS011;63741;42.624;26.276;2023-12-29T09:35:55;24.65;;;8.65;;
74957;SDS011;63741;42.624;26.276;2023-12-29T09:38:22;98.72;;;12.32;;
74957;SDS011;63741;42.624;26.276;2023-12-29T09:40:49;15.88;;;7.55;;
74957;SDS011;63741;42.624;26.276;2023-12-29T09:43:18;12.13;;;8.05;;
74957;SDS011;63741;42.624;26.276;2023-12-29T09:45:46;24.70;;;9.02;;
74957;SDS011;63741;42.624;26.276;2023-12-29T09:48:17;44.47;;;9.50;;
74957;SDS011;63741;42.624;26.276;2023-12-29T09:50:48;15.77;;;8.05;;
74957;SDS011;63741;42.624;26.276;2023-12-29T09:53:16;19.05;;;8.20;;
74957;SDS011;63741;42.624;26.276;2023-12-29T09:55:45;21.13;;;8.35;;
74957;SDS011;63741;42.624;26.276;2023-12-29T09:58:15;32.92;;;9.52;;
74957;SDS011;63741;42.624;26.276;2023-12-29T10:00:46;14.13;;;8.32;;
74957;SDS011;63741;42.624;26.276;2023-12-29T10:03:14;14.93;;;8.23;;
74957;SDS011;63741;42.624;26.276;2023-12-29T10:05:41;14.38;;;8.80;;
74957;SDS011;63741;42.624;26.276;2023-12-29T10:08:10;15.10;;;8.13;;
74957;SDS011;63741;42.624;26.276;2023-12-29T10:10:38;43.67;;;9.90;;
74957;SDS011;63741;42.624;26.276;2023-12-29T10:13:11;17.52;;;8.52;;
74957;SDS011;63741;42.624;26.276;2023-12-29T10:15:49;18.80;;;9.63;;
74957;SDS011;63741;42.624;26.276;2023-12-29T10:18:42;15.98;;;9.27;;
74957;SDS011;63741;42.624;26.276;2023-12-29T10:21:37;20.02;;;8.43;;
74957;SDS011;63741;42.624;26.276;2023-12-29T10:29:14;15.25;;;8.45;;
74957;SDS011;63741;42.624;26.276;2023-12-29T10:31:44;28.80;;;9.35;;
74957;SDS011;63741;42.624;26.276;2023-12-29T10:34:24;32.58;;;8.98;;
74957;SDS011;63741;42.624;26.276;2023-12-29T10:36:56;58.80;;;11.13;;
74957;SDS011;63741;42.624;26.276;2023-12-29T10:39:24;46.30;;;9.85;;
74957;SDS011;63741;42.624;26.276;2023-12-29T10:42:05;29.60;;;10.20;;
74957;SDS011;63741;42.624;26.276;2023-12-29T10:44:33;16.38;;;9.98;;
74957;SDS011;63741;42.624;26.276;2023-12-29T10:47:07;34.90;;;11.20;;
74957;SDS011;63741;42.624;26.276;2023-12-29T10:49:36;61.65;;;11.93;;
74957;SDS011;63741;42.624;26.276;2023-12-29T10:52:11;26.42;;;9.57;;
74957;SDS011;63741;42.624;26.276;2023-12-29T10:54:43;23.90;;;9.48;;
74957;SDS011;63741;42.624;26.276;2023-12-29T10:57:11;39.35;;;10.35;;
74957;SDS011;63741;42.624;26.276;2023-12-29T10:59:39;57.22;;;10.75;;
74957;SDS011;63741;42.624;26.276;2023-12-29T11:02:06;27.08;;;9.77;;
74957;SDS011;63741;42.624;26.276;2023-12-29T11:04:35;74.82;;;11.30;;
74957;SDS011;63741;42.624;26.276;2023-12-29T11:07:02;18.52;;;9.63;;
74957;SDS011;63741;42.624;26.276;2023-12-29T11:09:30;44.83;;;9.70;;
74957;SDS011;63741;42.624;26.276;2023-12-29T11:12:04;18.17;;;9.18;;
74957;SDS011;63741;42.624;26.276;2023-12-29T11:14:32;17.77;;;10.10;;
74957;SDS011;63741;42.624;26.276;2023-12-29T11:17:00;19.92;;;9.85;;
74957;SDS011;63741;42.624;26.276;2023-12-29T11:19:27;52.08;;;12.63;;
74957;SDS011;63741;42.624;26.276;2023-12-29T11:21:55;16.33;;;10.13;;
74957;SDS011;63741;42.624;26.276;2023-12-29T11:24:23;13.95;;;8.85;;
74957;SDS011;63741;42.624;26.276;2023-12-29T11:27:03;66.57;;;10.98;;
74957;SDS011;63741;42.624;26.276;2023-12-29T11:29:35;52.13;;;11.27;;
74957;SDS011;63741;42.624;26.276;2023-12-29T11:32:02;64.18;;;10.73;;
74957;SDS011;63741;42.624;26.276;2023-12-29T11:34:35;14.65;;;8.18;;
74957;SDS011;63741;42.624;26.276;2023-12-29T11:40:19;18.38;;;8.30;;
74957;SDS011;63741;42.624;26.276;2023-12-29T11:42:51;12.85;;;8.05;;
74957;SDS011;63741;42.624;26.276;2023-12-29T11:45:25;12.63;;;7.97;;
74957;SDS011;63741;42.624;26.276;2023-12-29T11:47:56;14.00;;;7.97;;
74957;SDS011;63741;42.624;26.276;2023-12-29T11:50:27;15.52;;;8.02;;
74957;SDS011;63741;42.624;26.276;2023-12-29T11:53:03;12.88;;;7.03;;
74957;SDS011;63741;42.624;26.276;2023-12-29T11:55:40;20.52;;;8.13;;
74957;SDS011;63741;42.624;26.276;2023-12-29T11:58:26;103.05;;;11.05;;
74957;SDS011;63741;42.624;26.276;2023-12-29T12:00:57;13.88;;;6.88;;
74957;SDS011;63741;42.624;26.276;2023-12-29T12:03:28;13.43;;;7.25;;
74957;SDS011;63741;42.624;26.276;2023-12-29T12:06:01;9.75;;;7.13;;
74957;SDS011;63741;42.624;26.276;2023-12-29T12:08:34;12.25;;;7.25;;
74957;SDS011;63741;42.624;26.276;2023-12-29T12:13:56;11.15;;;5.53;;
74957;SDS011;63741;42.624;26.276;2023-12-29T12:19:12;11.77;;;5.68;;
74957;SDS011;63741;42.624;26.276;2023-12-29T12:21:40;9.80;;;6.07;;
74957;SDS011;63741;42.624;26.276;2023-12-29T12:24:07;10.25;;;5.57;;
74957;SDS011;63741;42.624;26.276;2023-12-29T12:26:34;48.92;;;7.07;;
74957;SDS011;63741;42.624;26.276;2023-12-29T12:29:01;41.90;;;6.75;;
74957;SDS011;63741;42.624;26.276;2023-12-29T12:31:28;38.50;;;6.22;;
74957;SDS011;63741;42.624;26.276;2023-12-29T12:33:56;16.02;;;5.35;;
74957;SDS011;63741;42.624;26.276;2023-12-29T12:36:23;10.40;;;5.45;;
74957;SDS011;63741;42.624;26.276;2023-12-29T12:38:53;12.95;;;5.75;;
74957;SDS011;63741;42.624;26.276;2023-12-29T12:41:22;24.25;;;6.35;;
74957;SDS011;63741;42.624;26.276;2023-12-29T12:49:14;9.95;;;6.38;;
74957;SDS011;63741;42.624;26.276;2023-12-29T12:51:42;10.57;;;5.80;;
74957;SDS011;63741;42.624;26.276;2023-12-29T12:54:10;20.58;;;7.45;;
74957;SDS011;63741;42.624;26.276;2023-12-29T12:56:37;23.10;;;6.90;;
74957;SDS011;63741;42.624;26.276;2023-12-29T12:59:04;36.50;;;7.68;;
74957;SDS011;63741;42.624;26.276;2023-12-29T13:01:34;39.17;;;6.80;;
74957;SDS011;63741;42.624;26.276;2023-12-29T13:04:04;81.43;;;8.95;;
74957;SDS011;63741;42.624;26.276;2023-12-29T13:06:32;31.90;;;7.75;;
74957;SDS011;63741;42.624;26.276;2023-12-29T13:09:05;13.95;;;7.25;;
74957;SDS011;63741;42.624;26.276;2023-12-29T13:11:38;57.67;;;8.77;;
74957;SDS011;63741;42.624;26.276;2023-12-29T13:14:07;14.10;;;7.30;;
74957;SDS011;63741;42.624;26.276;2023-12-29T13:16:35;19.85;;;6.35;;
74957;SDS011;63741;42.624;26.276;2023-12-29T13:22:02;37.00;;;7.63;;
74957;SDS011;63741;42.624;26.276;2023-12-29T13:24:32;27.67;;;7.40;;
74957;SDS011;63741;42.624;26.276;2023-12-29T13:27:06;18.15;;;7.72;;
74957;SDS011;63741;42.624;26.276;2023-12-29T13:29:34;10.57;;;7.05;;
74957;SDS011;63741;42.624;26.276;2023-12-29T13:40:14;18.23;;;7.35;;
74957;SDS011;63741;42.624;26.276;2023-12-29T13:42:52;54.20;;;8.57;;
74957;SDS011;63741;42.624;26.276;2023-12-29T13:47:50;12.93;;;6.88;;
74957;SDS011;63741;42.624;26.276;2023-12-29T13:50:17;16.30;;;6.30;;
74957;SDS011;63741;42.624;26.276;2023-12-29T13:52:45;15.50;;;6.95;;
74957;SDS011;63741;42.624;26.276;2023-12-29T13:55:12;11.48;;;6.97;;
74957;SDS011;63741;42.624;26.276;2023-12-29T13:57:39;13.57;;;6.32;;
74957;SDS011;63741;42.624;26.276;2023-12-29T14:00:16;11.63;;;6.60;;
74957;SDS011;63741;42.624;26.276;2023-12-29T14:02:44;11.07;;;6.43;;
74957;SDS011;63741;42.624;26.276;2023-12-29T14:05:28;11.52;;;7.10;;
74957;SDS011;63741;42.624;26.276;2023-12-29T14:08:00;11.45;;;6.88;;
74957;SDS011;63741;42.624;26.276;2023-12-29T14:10:35;11.93;;;6.85;;
74957;SDS011;63741;42.624;26.276;2023-12-29T14:13:13;11.20;;;7.85;;
74957;SDS011;63741;42.624;26.276;2023-12-29T14:15:42;11.15;;;6.95;;
74957;SDS011;63741;42.624;26.276;2023-12-29T14:23:58;14.98;;;7.05;;
74957;SDS011;63741;42.624;26.276;2023-12-29T14:26:28;10.23;;;6.32;;
74957;SDS011;63741;42.624;26.276;2023-12-29T14:29:06;13.02;;;7.00;;
74957;SDS011;63741;42.624;26.276;2023-12-29T14:31:36;296.83;;;20.17;;
74957;SDS011;63741;42.624;26.276;2023-12-29T14:34:04;54.90;;;9.65;;
74957;SDS011;63741;42.624;26.276;2023-12-29T14:36:33;25.38;;;7.90;;
74957;SDS011;63741;42.624;26.276;2023-12-29T14:39:01;83.97;;;10.23;;
74957;SDS011;63741;42.624;26.276;2023-12-29T14:41:29;73.22;;;10.15;;
74957;SDS011;63741;42.624;26.276;2023-12-29T14:43:57;126.55;;;11.60;;
74957;SDS011;63741;42.624;26.276;2023-12-29T14:46:25;42.53;;;9.45;;
74957;SDS011;63741;42.624;26.276;2023-12-29T14:48:52;25.30;;;8.20;;
74957;SDS011;63741;42.624;26.276;2023-12-29T14:51:20;19.70;;;8.75;;
74957;SDS011;63741;42.624;26.276;2023-12-29T14:53:48;18.35;;;8.38;;
74957;SDS011;63741;42.624;26.276;2023-12-29T14:56:16;22.20;;;8.90;;
74957;SDS011;63741;42.624;26.276;2023-12-29T14:58:44;52.97;;;10.18;;
74957;SDS011;63741;42.624;26.276;2023-12-29T15:01:11;24.98;;;10.32;;
74957;SDS011;63741;42.624;26.276;2023-12-29T15:03:38;32.35;;;10.57;;
74957;SDS011;63741;42.624;26.276;2023-12-29T15:06:05;163.27;;;15.82;;
74957;SDS011;63741;42.624;26.276;2023-12-29T15:08:32;414.67;;;27.40;;